コペンハーゲン の空港の天気 - METARとTAF

コペンハーゲン国際空港 ( EKCH / CPH ) - デンマーク コペンハーゲン
飛行場実況気象(Metar)
観測時間01/23 04:50 CET (01/23 03:50 UTC)
風向・風速東南東 4m/s
視程10km以上
天気現象
少しの雲 雲底高度 640m
全天の8割程度の雲 雲底高度 820m
気温1℃
湿度80%
気圧1018hPa
METAREKCH 230350Z 12008KT 9999 FEW021 BKN027 01/M02 Q1018 NOSIG
過去の天気等 Google飛行場航空写真 Wunderground天気予報

過去48時間のMETAR

飛行場予報(TAF)
発表時間: 1/23 00:07 CET (1/22 23:07 UTC)
予報対象時間: 23日1時 CET ~ 24日1時 CET
風向・風速南東 8m/s
視程10km以上
全天の8割程度の雲 雲底高度 550m
23日1時 CET ~ 23日14時 CET に一時的に
全天の8割程度の雲 雲底高度 370m
23日14時 CET ~ 23日16時 CET に徐々に
風向・風速南 8m/s
全天の8割程度の雲 雲底高度 370m
23日16時 CET ~ 24日1時 CET に一時的に
視程2,000m
天気現象弱い雨霧雨 もや
全天の8割程度の雲 雲底高度 120m
TAF EKCH 222307Z 2300/2324 14015KT 9999 BKN018
TEMPO 2300/2313 BKN012
BECMG 2313/2315 19015KT BKN012
TEMPO 2315/2324 2000 -RADZ BR BKN004